Impacts TAF Board INFO
FOR SITUATIONAL AWARENESS. NOT TO BE USED FOR FLIGHT PLANNING PURPOSES.
IDs:

KDEN - Denver Intl, CO, US

Issued at 0205 UTC 17 Jul 2018
Updated at 0353 UTC 17 Jul 2018
Potential Impact None Slight Moderate High
Time0253Z 17/04Z 17/05Z 17/06Z 17/07Z 17/08Z 17/09Z 17/10Z 17/11Z 17/12Z 17/13Z 17/14Z 17/15Z 17/16Z>>
Type OBS PRVL PRVL PRVL PRVL PRVL PRVL PRVL PRVL PRVL PRVL PRVL PRVL PRVL
VIS 10 >6 >6 >6 >6 >6 >6 >6 >6 >6 >6 >6 >6 >6
CIG 160 -- -- -- -- -- -- -- 15 15 15 15 -- --
Cover BKN SCT SCT SCT SCT SCT SCT SCT BKN BKN BKN BKN SCT SCT
FltCat VFR VFR VFR VFR VFR VFR VFR VFR MVFR MVFR MVFR MVFR VFR VFR
WX -- -- -- -- -- -- -- -- -- -- -- -- -- --
WDir 190 180 180 180 180 180 180 180 310 310 310 310 350 350
WSpd 5 9 9 9 9 9 9 9 7 7 7 7 7 7
WGst -- -- -- -- -- -- -- -- -- -- -- -- -- --

Raw TAF
KDEN 170205Z 1702/1806 16005KT P6SM SCT080 BKN150
  FM170400 18009KT P6SM FEW100 SCT150
  FM171100 31007KT P6SM BKN015
  FM171500 35007KT P6SM SCT020 SCT140
  FM172100 03007KT P6SM VCTS SCT070CB BKN140
  PROB30 1721/1801 -TSRA BKN070CB


Raw METAR
KDEN 170253Z 19005KT 10SM FEW100 BKN160 22/16 A3020 RMK AO2 SLP155 60007 T02170161 51010 $
KDEN 170153Z 00000KT 10SM SCT080 BKN140 BKN220 23/16 A3019 RMK AO2 PK WND 12029/0057 LTG DSNT E-SW RAE19 TSE13B19E20 SLP154 TS MOVD E P0000 T02280156 $
KDEN 170118Z 12011G22KT 10SM VCTS -RA FEW017 SCT080CB BKN130 BKN220 23/16 A3018 RMK AO2 PK WND 12029/0057 LTG DSNT E-S TSE13 FRQ LTGICCG E-S TS E-S MOV SLO SE P0000 T02330156 $
KDEN 170053Z 20003KT 4SM R35L/1600V2800FT -TSRA FEW060 BKN080CB BKN130 BKN220 21/16 A3018 RMK AO2 PK WND 15043/0053 WSHFT 0026 LTG DSNT NE AND S RAB13 TSB20 SLP154 CONS LTGICCG SE-S TS SE-S MOV STDY P0007 T02110156 $
KDEN 170046Z 22006KT 3SM R35L/1800VP6000FT TSRA FEW060 BKN080CB BKN130 BKN220 24/16 A3016 RMK AO2 PK WND 02038/0030 WSHFT 0026 LTG DSNT NE AND S RAB13 TSB20 CONS LTGICCG S TS S MOV STDY P0007 T02390156 $

METAR Board
Radar Display
Forecast Discussion

FOR SITUATIONAL AWARENESS. NOT TO BE USED FOR FLIGHT PLANNING PURPOSES.